createdAt,value
2023-04-06T00:01:12.887Z,17.07
2023-04-06T00:03:39.808Z,14.90
2023-04-06T00:06:07.170Z,15.63
2023-04-06T00:08:43.456Z,16.47
2023-04-06T00:11:12.988Z,17.13
2023-04-06T00:13:39.726Z,15.70
2023-04-06T00:16:07.145Z,16.73
2023-04-06T00:18:33.979Z,15.80
2023-04-06T00:21:01.272Z,18.43
2023-04-06T00:23:27.990Z,18.67
2023-04-06T00:25:54.760Z,17.20
2023-04-06T00:28:27.068Z,16.07
2023-04-06T00:30:58.362Z,15.97
2023-04-06T00:33:25.714Z,18.57
2023-04-06T00:35:52.486Z,17.17
2023-04-06T00:38:19.367Z,17.60
2023-04-06T00:40:46.405Z,15.67
2023-04-06T00:43:13.661Z,19.00
2023-04-06T00:45:41.953Z,14.47
2023-04-06T00:48:18.580Z,15.13
2023-04-06T00:50:45.533Z,15.87
2023-04-06T00:53:12.292Z,15.73
2023-04-06T00:55:40.129Z,16.43
2023-04-06T00:58:07.366Z,16.37
2023-04-06T01:00:36.991Z,19.80
2023-04-06T01:03:06.911Z,14.27
2023-04-06T01:05:41.740Z,14.07
2023-04-06T01:08:11.758Z,19.17
2023-04-06T01:10:38.583Z,17.07
2023-04-06T01:13:05.599Z,16.60
2023-04-06T01:15:34.809Z,20.50
2023-04-06T01:18:01.681Z,16.27
2023-04-06T01:20:29.660Z,15.20
2023-04-06T01:22:56.488Z,20.30
2023-04-06T01:25:23.386Z,15.93
2023-04-06T01:27:50.521Z,16.00
2023-04-06T01:30:18.341Z,17.20
2023-04-06T01:32:49.005Z,17.50
2023-04-06T01:35:15.876Z,16.63
2023-04-06T01:37:42.593Z,16.33
2023-04-06T01:40:09.904Z,17.60
2023-04-06T01:42:36.890Z,16.37
2023-04-06T01:45:03.920Z,15.97
2023-04-06T01:47:30.941Z,25.73
2023-04-06T01:49:57.736Z,15.70
2023-04-06T01:52:27.128Z,16.93
2023-04-06T01:54:54.136Z,13.90
2023-04-06T01:57:21.441Z,15.70
2023-04-06T01:59:48.123Z,16.97
2023-04-06T02:02:18.005Z,15.43
2023-04-06T02:04:45.085Z,16.43
2023-04-06T02:07:12.026Z,17.53
2023-04-06T02:09:38.780Z,19.13
2023-04-06T02:12:05.758Z,16.67
2023-04-06T02:14:32.467Z,18.67
2023-04-06T02:16:59.568Z,18.33
2023-04-06T02:19:28.697Z,17.80
2023-04-06T02:21:55.372Z,19.77
2023-04-06T02:24:22.113Z,20.27
2023-04-06T02:26:51.260Z,22.23
2023-04-06T02:29:18.023Z,21.30
2023-04-06T02:31:45.012Z,22.53
2023-04-06T02:34:13.120Z,17.60
2023-04-06T02:36:39.909Z,20.07
2023-04-06T02:39:06.818Z,17.00
2023-04-06T02:41:33.744Z,16.63
2023-04-06T02:44:00.426Z,19.13
2023-04-06T02:46:27.176Z,20.70
2023-04-06T02:48:54.006Z,20.73
2023-04-06T02:51:21.183Z,17.53
2023-04-06T02:53:47.982Z,16.43
2023-04-06T02:56:15.204Z,23.27
2023-04-06T02:58:41.929Z,20.53
2023-04-06T03:01:08.617Z,20.20
2023-04-06T03:03:35.453Z,17.20
2023-04-06T03:06:02.238Z,19.27
2023-04-06T03:08:28.925Z,17.57
2023-04-06T03:10:56.031Z,21.00
2023-04-06T03:13:22.829Z,17.43
2023-04-06T03:15:49.598Z,18.50
2023-04-06T03:18:16.850Z,19.77
2023-04-06T03:20:43.666Z,18.57
2023-04-06T03:23:10.439Z,23.43
2023-04-06T03:25:37.242Z,20.60
2023-04-06T03:28:04.110Z,21.60
2023-04-06T03:30:33.539Z,21.43
2023-04-06T03:33:00.373Z,20.70
2023-04-06T03:35:27.107Z,18.27
2023-04-06T03:37:54.144Z,20.80
2023-04-06T03:40:20.910Z,21.57
2023-04-06T03:42:47.640Z,22.27
2023-04-06T03:45:15.032Z,19.33
2023-04-06T03:47:42.049Z,22.27
2023-04-06T03:50:09.262Z,23.27
2023-04-06T03:52:37.109Z,21.10
2023-04-06T03:55:04.197Z,21.50
2023-04-06T03:57:31.216Z,19.30
2023-04-06T03:59:58.123Z,20.10
2023-04-06T04:02:24.966Z,22.03
2023-04-06T04:04:51.998Z,18.40
2023-04-06T04:07:18.807Z,20.57
2023-04-06T04:09:45.520Z,21.93
2023-04-06T04:12:12.204Z,21.47
2023-04-06T04:14:38.878Z,20.53
2023-04-06T04:17:05.549Z,24.87
2023-04-06T04:19:32.278Z,21.60
2023-04-06T04:22:01.302Z,21.40
2023-04-06T04:24:28.088Z,23.43
2023-04-06T04:26:54.756Z,23.77
2023-04-06T04:29:22.295Z,22.77
2023-04-06T04:31:49.644Z,18.83
2023-04-06T04:34:16.797Z,20.80
2023-04-06T04:36:43.596Z,22.90
2023-04-06T04:39:10.580Z,28.40
2023-04-06T04:41:37.871Z,21.37
2023-04-06T04:44:04.665Z,23.80
2023-04-06T04:46:37.343Z,23.70
2023-04-06T04:49:04.068Z,23.83
2023-04-06T04:51:31.581Z,23.83
2023-04-06T04:54:01.157Z,23.53
2023-04-06T04:56:28.891Z,21.77
2023-04-06T04:58:57.217Z,25.00
2023-04-06T05:01:24.038Z,24.43
2023-04-06T05:03:51.052Z,21.53
2023-04-06T05:06:17.946Z,21.83
2023-04-06T05:08:45.073Z,23.77
2023-04-06T05:11:17.881Z,21.83
2023-04-06T05:13:44.735Z,22.63
2023-04-06T05:16:11.794Z,25.23
2023-04-06T05:18:38.513Z,22.87
2023-04-06T05:21:08.104Z,24.67
2023-04-06T05:23:34.928Z,25.83
2023-04-06T05:26:04.188Z,25.63
2023-04-06T05:28:31.435Z,24.03
2023-04-06T05:30:58.295Z,22.23
2023-04-06T05:33:26.110Z,23.33
2023-04-06T05:35:52.860Z,23.13
2023-04-06T05:38:19.607Z,25.70
2023-04-06T05:40:46.592Z,22.40
2023-04-06T05:43:13.412Z,24.23
2023-04-06T05:45:40.236Z,23.73
2023-04-06T05:48:07.111Z,21.97
2023-04-06T05:50:33.916Z,25.00
2023-04-06T05:53:05.787Z,25.30
2023-04-06T05:55:35.094Z,24.13
2023-04-06T05:58:01.767Z,23.27
2023-04-06T06:00:28.476Z,23.73
2023-04-06T06:02:55.427Z,23.93
2023-04-06T06:05:22.320Z,25.10
2023-04-06T06:07:49.128Z,23.43
2023-04-06T06:10:16.059Z,28.13
2023-04-06T06:12:42.930Z,23.13
2023-04-06T06:15:12.720Z,27.93
2023-04-06T06:17:39.903Z,28.33
2023-04-06T06:20:10.016Z,27.70
2023-04-06T06:22:37.141Z,27.80
2023-04-06T06:25:04.355Z,21.77
2023-04-06T06:27:31.494Z,29.17
2023-04-06T06:29:58.291Z,25.33
2023-04-06T06:32:25.027Z,23.23
2023-04-06T06:34:51.792Z,26.73
2023-04-06T06:37:18.489Z,26.37
2023-04-06T06:39:45.274Z,23.03
2023-04-06T06:42:14.090Z,25.40
2023-04-06T06:44:41.547Z,22.73
2023-04-06T06:47:08.292Z,24.17
2023-04-06T06:49:35.015Z,24.03
2023-04-06T06:52:02.054Z,25.20
2023-04-06T06:54:31.935Z,25.83
2023-04-06T06:56:58.646Z,26.50
2023-04-06T06:59:25.361Z,23.63
2023-04-06T07:01:52.097Z,25.73
2023-04-06T07:04:18.882Z,24.90
2023-04-06T07:06:45.794Z,24.47
2023-04-06T07:09:15.729Z,23.97
2023-04-06T07:11:42.421Z,25.93
2023-04-06T07:14:09.276Z,26.70
2023-04-06T07:16:36.334Z,23.43
2023-04-06T07:19:03.126Z,26.00
2023-04-06T07:21:29.954Z,23.93
2023-04-06T07:23:56.697Z,25.07
2023-04-06T07:26:26.453Z,22.13
2023-04-06T07:28:53.340Z,25.60
2023-04-06T07:31:20.210Z,24.33
2023-04-06T07:33:51.013Z,24.80
2023-04-06T07:36:17.763Z,25.83
2023-04-06T07:38:44.497Z,24.33
2023-04-06T07:41:11.274Z,28.33
2023-04-06T07:43:38.945Z,23.50
2023-04-06T07:46:05.703Z,26.47
2023-04-06T07:48:32.470Z,25.03
2023-04-06T07:51:03.961Z,27.10
2023-04-06T07:53:31.565Z,23.63
2023-04-06T07:56:00.048Z,24.33
2023-04-06T07:58:27.091Z,24.37
2023-04-06T08:00:53.947Z,22.03
2023-04-06T08:03:22.447Z,23.43
2023-04-06T08:05:49.388Z,22.37
2023-04-06T08:08:16.873Z,21.53
2023-04-06T08:10:43.565Z,25.17
2023-04-06T08:13:10.363Z,23.00
2023-04-06T08:15:39.990Z,25.20
2023-04-06T08:18:06.848Z,24.07
2023-04-06T08:20:33.632Z,21.97
2023-04-06T08:23:00.389Z,21.60
2023-04-06T08:25:29.189Z,22.60
2023-04-06T08:27:55.979Z,29.97
2023-04-06T08:30:23.134Z,27.03
2023-04-06T08:32:49.893Z,27.07
2023-04-06T08:35:16.944Z,23.43
2023-04-06T08:37:43.769Z,23.53
2023-04-06T08:40:11.038Z,27.33
2023-04-06T08:42:45.216Z,24.40
2023-04-06T08:45:12.429Z,26.03
2023-04-06T08:47:42.429Z,23.67
2023-04-06T08:50:09.980Z,26.33
2023-04-06T08:52:37.788Z,21.93
2023-04-06T08:55:04.878Z,26.37
2023-04-06T08:57:37.030Z,24.70
2023-04-06T09:00:04.084Z,25.33
2023-04-06T09:02:31.897Z,24.23
2023-04-06T09:05:00.098Z,27.30
2023-04-06T09:07:27.728Z,25.70
2023-04-06T09:09:54.418Z,28.87
2023-04-06T09:12:29.726Z,24.23
2023-04-06T09:14:57.445Z,25.47
2023-04-06T09:17:26.138Z,27.90
2023-04-06T09:19:53.289Z,25.60
2023-04-06T09:22:20.998Z,25.30
2023-04-06T09:24:52.223Z,24.30
2023-04-06T09:27:30.718Z,24.33
2023-04-06T09:30:25.799Z,29.73
2023-04-06T09:32:55.909Z,23.90
2023-04-06T09:35:23.763Z,22.70
2023-04-06T09:37:52.573Z,21.43
2023-04-06T09:40:20.501Z,20.63
2023-04-06T09:42:48.081Z,17.67
2023-04-06T09:45:15.449Z,20.63
2023-04-06T09:47:45.639Z,23.27
2023-04-06T09:50:14.560Z,21.23
2023-04-06T09:52:50.438Z,19.03
2023-04-06T09:55:36.602Z,19.27
2023-04-06T09:58:07.399Z,15.87
2023-04-06T10:00:48.672Z,17.23
2023-04-06T10:03:46.060Z,15.97
2023-04-06T10:06:16.020Z,17.60
2023-04-06T10:08:46.733Z,17.20
2023-04-06T10:11:13.915Z,14.40
2023-04-06T10:13:40.696Z,13.23
2023-04-06T10:16:08.782Z,15.50
2023-04-06T10:18:36.334Z,15.30
2023-04-06T10:21:03.086Z,14.13
2023-04-06T10:23:32.695Z,13.07
2023-04-06T10:26:19.199Z,14.60
2023-04-06T10:28:48.695Z,12.70
2023-04-06T10:31:15.935Z,13.43
2023-04-06T10:33:43.044Z,12.83
2023-04-06T10:36:22.728Z,13.10
2023-04-06T10:38:57.241Z,16.13
2023-04-06T10:41:24.186Z,12.63
2023-04-06T10:44:00.282Z,13.97
2023-04-06T10:46:28.727Z,15.90
2023-04-06T10:48:56.500Z,11.80
2023-04-06T10:51:28.671Z,11.80
2023-04-06T10:53:56.457Z,14.70
2023-04-06T10:56:26.401Z,11.83
2023-04-06T10:58:54.681Z,12.73
2023-04-06T11:01:28.592Z,12.40
2023-04-06T11:04:00.386Z,12.37
2023-04-06T11:06:30.477Z,11.90
2023-04-06T11:08:57.784Z,13.83
2023-04-06T11:11:27.745Z,11.27
2023-04-06T11:13:56.990Z,12.80
2023-04-06T11:16:24.870Z,11.77
2023-04-06T11:19:07.084Z,11.67
2023-04-06T11:21:48.829Z,12.33
2023-04-06T11:24:32.166Z,15.30
2023-04-06T11:27:01.859Z,12.70
2023-04-06T11:29:33.217Z,12.20
2023-04-06T11:32:04.636Z,12.43
2023-04-06T11:34:37.987Z,13.30
2023-04-06T11:37:08.282Z,12.27
2023-04-06T11:39:52.136Z,13.17
2023-04-06T11:42:30.477Z,13.80
2023-04-06T11:44:59.167Z,13.30
2023-04-06T11:47:37.100Z,15.70
2023-04-06T11:50:08.613Z,13.90
2023-04-06T11:52:35.527Z,13.90
2023-04-06T11:55:15.596Z,15.03
2023-04-06T11:57:43.348Z,13.87
2023-04-06T12:00:11.458Z,13.67
2023-04-06T12:02:39.383Z,14.47
2023-04-06T12:05:07.393Z,12.37
2023-04-06T12:07:38.696Z,10.97
2023-04-06T12:10:06.165Z,11.73
2023-04-06T12:12:33.213Z,14.27
2023-04-06T12:15:00.931Z,15.83
2023-04-06T12:17:27.721Z,17.50
2023-04-06T12:19:54.477Z,13.50
2023-04-06T12:22:21.188Z,13.60
2023-04-06T12:24:48.072Z,13.80
2023-04-06T12:27:14.834Z,13.20
2023-04-06T12:29:43.438Z,12.20
2023-04-06T12:32:10.279Z,11.03
2023-04-06T12:34:36.990Z,12.27
2023-04-06T12:37:03.769Z,11.90
2023-04-06T12:39:31.583Z,11.47
2023-04-06T12:41:59.140Z,13.27
2023-04-06T12:44:27.138Z,12.50
2023-04-06T12:46:54.949Z,14.60
2023-04-06T12:49:22.945Z,13.40
2023-04-06T12:51:49.819Z,14.03
2023-04-06T12:54:16.723Z,12.07
2023-04-06T12:56:43.505Z,12.17
2023-04-06T12:59:10.329Z,15.00
2023-04-06T13:01:37.265Z,14.67
2023-04-06T13:04:04.043Z,13.60
2023-04-06T13:06:33.921Z,13.87
2023-04-06T13:09:01.132Z,13.07
2023-04-06T13:11:28.812Z,14.30
2023-04-06T13:13:55.766Z,12.77
2023-04-06T13:16:22.621Z,14.37
2023-04-06T13:18:52.181Z,11.93
2023-04-06T13:21:20.022Z,12.63
2023-04-06T13:23:46.827Z,13.97
2023-04-06T13:26:14.618Z,13.53
2023-04-06T13:28:41.954Z,13.37
2023-04-06T13:31:09.375Z,14.27
2023-04-06T13:33:38.980Z,14.00
2023-04-06T13:36:08.832Z,14.53
2023-04-06T13:38:35.775Z,12.97
2023-04-06T13:41:02.711Z,13.27
2023-04-06T13:43:29.556Z,13.00
2023-04-06T13:46:01.762Z,14.97
2023-04-06T13:48:28.539Z,11.27
2023-04-06T13:50:55.276Z,13.10
2023-04-06T13:53:22.413Z,11.67
2023-04-06T13:55:56.276Z,14.93
2023-04-06T13:58:23.406Z,11.67
2023-04-06T14:00:53.673Z,11.70
2023-04-06T14:03:21.449Z,13.10
2023-04-06T14:05:48.212Z,11.90
2023-04-06T14:08:15.440Z,10.57
2023-04-06T14:10:43.365Z,12.13
2023-04-06T14:13:10.700Z,11.43
2023-04-06T14:15:37.703Z,12.90
2023-04-06T14:18:04.817Z,14.40
2023-04-06T14:20:36.871Z,11.87
2023-04-06T14:23:04.355Z,11.10
2023-04-06T14:25:33.072Z,14.20
2023-04-06T14:27:59.949Z,11.67
2023-04-06T14:30:26.806Z,11.43
2023-04-06T14:32:53.695Z,13.10
2023-04-06T14:35:23.485Z,12.50
2023-04-06T14:37:50.908Z,11.53
2023-04-06T14:40:17.764Z,12.97
2023-04-06T14:42:44.484Z,11.23
2023-04-06T14:45:11.407Z,15.40
2023-04-06T14:47:38.169Z,16.03
2023-04-06T14:50:05.903Z,15.10
2023-04-06T14:52:33.010Z,14.87
2023-04-06T14:54:59.911Z,12.67
2023-04-06T14:57:26.814Z,12.80
2023-04-06T14:59:56.439Z,11.33
2023-04-06T15:02:23.395Z,14.70
2023-04-06T15:04:53.257Z,13.80
2023-04-06T15:07:20.958Z,11.17
2023-04-06T15:09:47.622Z,11.67
2023-04-06T15:12:14.510Z,13.60
2023-04-06T15:14:41.323Z,11.87
2023-04-06T15:17:08.053Z,14.23
2023-04-06T15:19:34.943Z,13.30
2023-04-06T15:22:04.229Z,13.37
2023-04-06T15:24:35.228Z,12.70
2023-04-06T15:27:02.242Z,12.10
2023-04-06T15:29:28.976Z,11.83
2023-04-06T15:31:56.042Z,11.27
2023-04-06T15:34:22.756Z,12.67
2023-04-06T15:36:49.493Z,11.80
2023-04-06T15:39:21.884Z,13.03
2023-04-06T15:41:48.579Z,12.03
2023-04-06T15:44:15.893Z,11.73
2023-04-06T15:46:42.631Z,12.33
2023-04-06T15:49:09.421Z,15.03
2023-04-06T15:51:37.301Z,12.40
2023-04-06T15:54:06.986Z,14.50
2023-04-06T15:56:33.895Z,13.90
2023-04-06T15:59:00.676Z,13.00
2023-04-06T16:01:27.574Z,12.20
2023-04-06T16:03:54.742Z,15.87
2023-04-06T16:06:21.523Z,13.93
2023-04-06T16:08:48.579Z,14.60
2023-04-06T16:11:15.610Z,12.27
2023-04-06T16:13:45.055Z,13.40
2023-04-06T16:16:14.423Z,14.87
2023-04-06T16:18:41.365Z,12.80
2023-04-06T16:21:08.480Z,13.87
2023-04-06T16:23:35.617Z,12.90
2023-04-06T16:26:02.387Z,12.33
2023-04-06T16:28:29.097Z,13.73
2023-04-06T16:30:55.798Z,13.93
2023-04-06T16:33:28.356Z,14.73
2023-04-06T16:35:55.123Z,12.80
2023-04-06T16:38:23.992Z,14.00
2023-04-06T16:41:03.297Z,12.90
2023-04-06T16:43:30.206Z,13.73
2023-04-06T16:45:56.992Z,13.80
2023-04-06T16:48:24.728Z,14.13
2023-04-06T16:50:51.478Z,13.37
2023-04-06T16:53:18.237Z,13.73
2023-04-06T16:55:47.294Z,13.27
2023-04-06T16:58:13.999Z,12.30
2023-04-06T17:00:41.104Z,11.33
2023-04-06T17:03:08.093Z,12.83
2023-04-06T17:05:35.913Z,14.07
2023-04-06T17:08:02.768Z,10.70
2023-04-06T17:10:33.788Z,11.20
2023-04-06T17:13:03.941Z,14.57
2023-04-06T17:15:31.859Z,12.97
2023-04-06T17:17:58.727Z,11.53
2023-04-06T17:20:25.546Z,12.23
2023-04-06T17:22:52.355Z,11.07
2023-04-06T17:25:19.235Z,12.73
2023-04-06T17:27:46.074Z,11.63
2023-04-06T17:30:15.555Z,12.97
2023-04-06T17:32:44.173Z,12.53
2023-04-06T17:35:11.714Z,10.53
2023-04-06T17:37:39.043Z,12.00
2023-04-06T17:40:06.610Z,11.33
2023-04-06T17:42:33.349Z,13.17
2023-04-06T17:45:00.406Z,13.43
2023-04-06T17:47:32.146Z,12.47
2023-04-06T17:50:03.190Z,12.00
2023-04-06T17:52:30.164Z,11.73
2023-04-06T17:54:59.876Z,14.07
2023-04-06T17:57:27.072Z,13.13
2023-04-06T17:59:54.418Z,15.17
2023-04-06T18:02:22.157Z,13.07
2023-04-06T18:04:55.450Z,14.33
2023-04-06T18:07:22.361Z,14.07
2023-04-06T18:09:49.041Z,14.97
2023-04-06T18:12:16.122Z,12.90
2023-04-06T18:14:48.971Z,14.30
2023-04-06T18:17:19.637Z,13.47
2023-04-06T18:19:58.255Z,14.07
2023-04-06T18:22:25.187Z,16.87
2023-04-06T18:24:51.956Z,15.47
2023-04-06T18:27:21.619Z,15.90
2023-04-06T18:29:51.496Z,14.57
2023-04-06T18:32:18.249Z,15.70
2023-04-06T18:34:45.567Z,15.07
2023-04-06T18:37:12.807Z,15.53
2023-04-06T18:39:39.573Z,16.57
2023-04-06T18:42:06.314Z,19.07
2023-04-06T18:44:33.075Z,17.27
2023-04-06T18:46:59.913Z,16.83
2023-04-06T18:49:26.911Z,17.17
2023-04-06T18:51:53.763Z,17.20
2023-04-06T18:54:24.064Z,20.67
2023-04-06T18:56:51.278Z,19.10
2023-04-06T18:59:19.389Z,21.57
2023-04-06T19:01:50.956Z,19.80
2023-04-06T19:04:21.366Z,22.20
2023-04-06T19:06:56.260Z,20.70
2023-04-06T19:09:23.072Z,21.37
2023-04-06T19:11:50.882Z,23.10
2023-04-06T19:14:17.811Z,22.60
2023-04-06T19:16:52.502Z,22.23
2023-04-06T19:19:19.878Z,22.67
2023-04-06T19:21:46.737Z,25.60
2023-04-06T19:24:15.781Z,25.47
2023-04-06T19:26:42.773Z,24.97
2023-04-06T19:29:10.499Z,27.43
2023-04-06T19:31:37.265Z,28.50
2023-04-06T19:34:04.554Z,28.97
2023-04-06T19:36:32.426Z,28.23
2023-04-06T19:38:59.676Z,28.60
2023-04-06T19:41:27.362Z,30.90
2023-04-06T19:43:54.194Z,29.93
2023-04-06T19:46:21.608Z,29.53
2023-04-06T19:48:48.478Z,29.90
2023-04-06T19:51:16.538Z,32.83
2023-04-06T19:53:43.297Z,33.10
2023-04-06T19:56:13.147Z,34.07
2023-04-06T19:58:42.688Z,31.97
2023-04-06T20:01:09.515Z,33.20
2023-04-06T20:03:36.591Z,32.33
2023-04-06T20:06:03.686Z,33.57
2023-04-06T20:08:30.475Z,33.50
2023-04-06T20:11:09.797Z,29.00
2023-04-06T20:13:37.729Z,34.17
2023-04-06T20:16:07.744Z,32.10
2023-04-06T20:18:34.766Z,31.07
2023-04-06T20:21:01.626Z,32.03
2023-04-06T20:23:28.451Z,34.87
2023-04-06T20:25:55.282Z,33.00
2023-04-06T20:28:23.155Z,37.13
2023-04-06T20:30:56.681Z,35.20
2023-04-06T20:33:24.137Z,36.37
2023-04-06T20:36:01.245Z,35.20
2023-04-06T20:40:59.885Z,39.27
2023-04-06T20:43:28.795Z,37.57
2023-04-06T20:45:59.221Z,49.50
2023-04-06T20:48:26.142Z,46.87
2023-04-06T20:50:53.124Z,39.50
2023-04-06T20:53:20.959Z,37.70
2023-04-06T20:55:54.181Z,38.23
2023-04-06T20:58:21.348Z,36.67
2023-04-06T21:00:49.615Z,38.07
2023-04-06T21:03:17.661Z,40.93
2023-04-06T21:05:52.516Z,38.07
2023-04-06T21:08:19.510Z,37.40
2023-04-06T21:10:46.244Z,39.50
2023-04-06T21:13:15.638Z,36.67
2023-04-06T21:15:42.665Z,35.20
2023-04-06T21:18:09.622Z,34.20
2023-04-06T21:20:37.087Z,32.47
2023-04-06T21:23:03.775Z,34.40
2023-04-06T21:25:30.516Z,35.33
2023-04-06T21:27:57.227Z,32.63
2023-04-06T21:30:24.100Z,31.17
2023-04-06T21:32:50.784Z,32.87
2023-04-06T21:35:17.554Z,29.23
2023-04-06T21:37:44.358Z,31.30
2023-04-06T21:40:13.139Z,29.77
2023-04-06T21:42:39.916Z,29.57
2023-04-06T21:45:07.038Z,28.33
2023-04-06T21:47:36.844Z,25.87
2023-04-06T21:50:04.076Z,30.17
2023-04-06T21:52:30.941Z,26.00
2023-04-06T21:55:00.251Z,28.67
2023-04-06T21:57:26.976Z,26.13
2023-04-06T21:59:54.250Z,28.80
2023-04-06T22:02:21.700Z,24.43
2023-04-06T22:04:49.504Z,27.23
2023-04-06T22:07:16.413Z,24.23
2023-04-06T22:09:50.025Z,25.03
2023-04-06T22:12:18.106Z,27.60
2023-04-06T22:14:44.838Z,24.03
2023-04-06T22:17:11.711Z,26.23
2023-04-06T22:19:41.360Z,29.87
2023-04-06T22:22:08.190Z,27.37
2023-04-06T22:24:34.996Z,25.37
2023-04-06T22:27:01.992Z,27.40
2023-04-06T22:29:28.789Z,26.73
2023-04-06T22:31:56.486Z,28.70
2023-04-06T22:34:26.106Z,28.57
2023-04-06T22:36:52.824Z,28.93
2023-04-06T22:39:19.875Z,24.77
2023-04-06T22:41:48.928Z,25.43
2023-04-06T22:44:16.117Z,26.43
2023-04-06T22:46:43.223Z,23.87
2023-04-06T22:49:10.031Z,23.63
2023-04-06T22:51:37.180Z,21.00
2023-04-06T22:54:03.983Z,27.33
2023-04-06T22:56:30.713Z,23.97
2023-04-06T22:58:57.469Z,24.50
2023-04-06T23:01:24.299Z,22.53
2023-04-06T23:03:51.333Z,17.00
2023-04-06T23:06:19.406Z,19.57
2023-04-06T23:08:47.199Z,17.87
2023-04-06T23:11:14.241Z,17.70
2023-04-06T23:13:41.022Z,15.53
2023-04-06T23:16:09.312Z,15.50
2023-04-06T23:18:36.106Z,13.40
2023-04-06T23:21:05.589Z,12.60
2023-04-06T23:23:32.333Z,13.97
2023-04-06T23:25:59.199Z,12.43
2023-04-06T23:28:26.078Z,16.70
2023-04-06T23:30:52.733Z,14.17
2023-04-06T23:33:19.603Z,12.03
2023-04-06T23:35:46.433Z,12.00
2023-04-06T23:38:14.604Z,11.00
2023-04-06T23:40:41.371Z,14.57
2023-04-06T23:43:08.114Z,12.87
2023-04-06T23:45:34.935Z,15.23
2023-04-06T23:48:04.568Z,14.83
2023-04-06T23:50:37.456Z,12.40
2023-04-06T23:53:04.585Z,10.93
2023-04-06T23:55:31.709Z,12.00
2023-04-06T23:57:58.925Z,13.83
